createdAt,value
2018-01-25T00:01:39.156Z,1.73
2018-01-25T00:04:07.484Z,1.00
2018-01-25T00:06:34.994Z,0.60
2018-01-25T00:09:02.436Z,1.00
2018-01-25T00:11:29.911Z,1.40
2018-01-25T00:13:58.374Z,0.90
2018-01-25T00:16:25.949Z,1.07
2018-01-25T00:18:53.512Z,0.70
2018-01-25T00:21:21.892Z,0.53
2018-01-25T00:23:49.452Z,1.00
2018-01-25T00:26:17.007Z,0.70
2018-01-25T00:28:44.572Z,0.90
2018-01-25T00:31:12.024Z,0.60
2018-01-25T00:33:39.481Z,0.73
2018-01-25T00:36:07.044Z,1.00
2018-01-25T00:38:34.517Z,0.63
2018-01-25T00:41:02.036Z,0.50
2018-01-25T00:43:29.496Z,0.73
2018-01-25T00:45:57.041Z,0.53
2018-01-25T00:48:24.513Z,1.10
2018-01-25T00:50:51.980Z,1.00
2018-01-25T00:53:19.451Z,0.90
2018-01-25T00:55:46.907Z,0.70
2018-01-25T00:58:14.366Z,1.33
2018-01-25T01:00:41.916Z,0.63
2018-01-25T01:03:09.381Z,0.70
2018-01-25T01:05:37.159Z,0.77
2018-01-25T01:08:04.908Z,0.70
2018-01-25T01:10:32.368Z,0.50
2018-01-25T01:12:59.824Z,0.40
2018-01-25T01:15:27.469Z,0.50
2018-01-25T01:17:54.959Z,0.30
2018-01-25T01:20:22.408Z,0.47
2018-01-25T01:22:50.708Z,0.93
2018-01-25T01:25:18.957Z,0.53
2018-01-25T01:27:46.410Z,0.50
2018-01-25T01:30:14.057Z,0.70
2018-01-25T01:32:41.513Z,0.50
2018-01-25T01:35:08.972Z,0.77
2018-01-25T01:37:36.436Z,0.50
2018-01-25T01:40:04.008Z,0.73
2018-01-25T01:42:31.644Z,0.60
2018-01-25T01:44:59.232Z,0.50
2018-01-25T01:47:26.707Z,0.50
2018-01-25T01:49:54.168Z,1.10
2018-01-25T01:52:21.797Z,0.70
2018-01-25T01:54:49.256Z,1.47
2018-01-25T01:57:16.716Z,0.50
2018-01-25T01:59:44.260Z,3.10
2018-01-25T02:02:11.732Z,0.80
2018-01-25T02:04:39.181Z,0.53
2018-01-25T02:07:06.677Z,1.07
2018-01-25T02:09:34.336Z,1.10
2018-01-25T02:12:01.837Z,0.60
2018-01-25T02:14:29.300Z,0.80
2018-01-25T02:16:56.970Z,1.07
2018-01-25T02:19:24.428Z,1.23
2018-01-25T02:21:52.034Z,0.80
2018-01-25T02:24:19.721Z,0.97
2018-01-25T02:26:47.172Z,1.60
2018-01-25T02:29:14.649Z,1.57
2018-01-25T02:31:42.105Z,0.70
2018-01-25T02:34:09.591Z,1.10
2018-01-25T02:36:37.061Z,0.97
2018-01-25T02:39:04.521Z,1.57
2018-01-25T02:41:32.200Z,1.53
2018-01-25T02:44:00.482Z,0.40
2018-01-25T02:46:28.036Z,0.40
2018-01-25T02:48:55.532Z,0.63
2018-01-25T02:51:22.989Z,1.03
2018-01-25T02:53:50.460Z,0.60
2018-01-25T02:56:17.913Z,0.50
2018-01-25T02:58:45.376Z,1.23
2018-01-25T03:01:12.862Z,0.60
2018-01-25T03:03:40.363Z,0.53
2018-01-25T03:06:07.816Z,1.43
2018-01-25T03:08:35.320Z,0.83
2018-01-25T03:11:02.769Z,0.87
2018-01-25T03:13:30.230Z,0.30
2018-01-25T03:15:57.675Z,1.90
2018-01-25T03:18:25.406Z,0.50
2018-01-25T03:20:53.181Z,0.30
2018-01-25T03:25:53.492Z,1.03
2018-01-25T03:28:20.949Z,0.83
2018-01-25T03:30:48.435Z,0.87
2018-01-25T03:33:15.923Z,1.13
2018-01-25T03:35:43.378Z,0.40
2018-01-25T03:38:10.900Z,0.73
2018-01-25T03:40:38.668Z,0.40
2018-01-25T03:43:06.140Z,0.60
2018-01-25T03:45:33.614Z,0.53
2018-01-25T03:48:01.250Z,0.80
2018-01-25T03:50:28.708Z,0.53
2018-01-25T03:52:56.201Z,0.77
2018-01-25T03:55:23.645Z,0.80
2018-01-25T03:57:51.109Z,0.40
2018-01-25T04:00:18.561Z,0.40
2018-01-25T04:02:46.026Z,0.50
2018-01-25T04:05:13.477Z,1.00
2018-01-25T04:07:40.948Z,0.63
2018-01-25T04:10:08.468Z,0.53
2018-01-25T04:12:36.125Z,1.37
2018-01-25T04:15:03.574Z,0.93
2018-01-25T04:17:31.036Z,0.60
2018-01-25T04:19:58.538Z,0.90
2018-01-25T04:22:26.000Z,0.80
2018-01-25T04:24:53.465Z,0.40
2018-01-25T04:27:20.919Z,0.50
2018-01-25T04:29:48.397Z,0.97
2018-01-25T04:32:15.913Z,0.90
2018-01-25T04:34:43.412Z,2.37
2018-01-25T04:37:11.013Z,1.30
2018-01-25T04:39:38.525Z,1.37
2018-01-25T04:42:05.989Z,1.47
2018-01-25T04:44:33.465Z,0.47
2018-01-25T04:47:00.925Z,1.93
2018-01-25T04:49:28.408Z,1.23
2018-01-25T04:51:55.874Z,1.20
2018-01-25T04:54:23.534Z,0.57
2018-01-25T04:56:50.982Z,2.30
2018-01-25T04:59:18.445Z,1.50
2018-01-25T05:01:45.914Z,0.50
2018-01-25T05:04:13.358Z,0.77
2018-01-25T05:06:40.916Z,0.63
2018-01-25T05:09:08.393Z,2.23
2018-01-25T05:11:36.005Z,0.63
2018-01-25T05:14:03.500Z,1.00
2018-01-25T05:16:30.951Z,1.03
2018-01-25T05:18:58.413Z,1.07
2018-01-25T05:21:25.852Z,1.57
2018-01-25T05:23:53.442Z,0.80
2018-01-25T05:26:20.930Z,1.20
2018-01-25T05:28:48.388Z,1.77
2018-01-25T05:31:15.851Z,1.80
2018-01-25T05:33:43.329Z,2.57
2018-01-25T05:36:10.778Z,4.00
2018-01-25T05:38:38.345Z,2.77
2018-01-25T05:41:05.843Z,2.50
2018-01-25T05:43:33.321Z,4.07
2018-01-25T05:46:00.821Z,3.60
2018-01-25T05:48:29.061Z,4.57
2018-01-25T05:50:56.693Z,3.80
2018-01-25T05:53:24.225Z,4.03
2018-01-25T05:55:51.740Z,2.67
2018-01-25T05:58:19.199Z,4.47
2018-01-25T06:00:46.649Z,6.33
2018-01-25T06:03:14.427Z,7.60
2018-01-25T06:05:42.177Z,5.17
2018-01-25T06:08:09.833Z,5.30
2018-01-25T06:10:37.403Z,2.50
2018-01-25T06:13:04.854Z,8.37
2018-01-25T06:15:32.505Z,2.87
2018-01-25T06:17:59.961Z,4.97
2018-01-25T06:20:27.432Z,3.23
2018-01-25T06:22:54.900Z,2.83
2018-01-25T06:25:23.289Z,1.47
2018-01-25T06:27:50.841Z,2.70
2018-01-25T06:30:18.330Z,14.67
2018-01-25T06:32:45.920Z,5.33
2018-01-25T06:35:13.465Z,10.17
2018-01-25T06:37:40.914Z,5.70
2018-01-25T06:40:08.369Z,3.63
2018-01-25T06:42:35.856Z,5.87
2018-01-25T06:45:03.311Z,12.33
2018-01-25T06:47:30.813Z,7.90
2018-01-25T06:49:58.461Z,16.77
2018-01-25T06:52:25.937Z,14.13
2018-01-25T06:54:53.387Z,9.57
2018-01-25T06:57:20.848Z,6.70
2018-01-25T06:59:48.309Z,9.53
2018-01-25T07:02:15.756Z,7.33
2018-01-25T07:04:43.220Z,6.17
2018-01-25T07:07:10.781Z,9.93
2018-01-25T07:09:38.416Z,6.50
2018-01-25T07:12:05.997Z,6.10
2018-01-25T07:14:33.653Z,7.30
2018-01-25T07:17:01.109Z,4.23
2018-01-25T07:19:28.583Z,5.30
2018-01-25T07:21:56.048Z,10.73
2018-01-25T07:24:23.601Z,7.03
2018-01-25T07:26:51.252Z,5.53
2018-01-25T07:29:18.705Z,4.83
2018-01-25T07:31:46.156Z,5.10
2018-01-25T07:34:13.655Z,3.93
2018-01-25T07:36:41.196Z,3.87
2018-01-25T07:39:08.801Z,4.17
2018-01-25T07:41:37.211Z,4.10
2018-01-25T07:44:04.745Z,4.40
2018-01-25T07:46:32.296Z,3.20
2018-01-25T07:48:59.946Z,4.57
2018-01-25T07:51:27.412Z,16.00
2018-01-25T07:53:54.937Z,6.20
2018-01-25T07:56:22.594Z,3.90
2018-01-25T07:58:50.055Z,4.33
2018-01-25T08:01:17.612Z,2.03
2018-01-25T08:03:45.073Z,4.33
2018-01-25T08:06:12.541Z,3.67
2018-01-25T08:08:40.174Z,5.67
2018-01-25T08:11:07.770Z,4.03
2018-01-25T08:13:39.153Z,3.03
2018-01-25T08:16:12.165Z,4.13
2018-01-25T08:18:39.621Z,3.63
2018-01-25T08:21:07.120Z,3.23
2018-01-25T08:23:34.749Z,2.50
2018-01-25T08:26:02.338Z,4.90
2018-01-25T08:28:29.794Z,3.63
2018-01-25T08:30:57.360Z,2.80
2018-01-25T08:33:24.809Z,2.93
2018-01-25T08:35:52.394Z,1.73
2018-01-25T08:38:19.834Z,2.53
2018-01-25T08:40:47.424Z,2.33
2018-01-25T08:43:14.873Z,2.30
2018-01-25T08:45:42.325Z,2.63
2018-01-25T08:48:09.782Z,2.53
2018-01-25T08:50:37.530Z,2.70
2018-01-25T08:53:05.166Z,0.83
2018-01-25T08:55:32.628Z,1.23
2018-01-25T08:58:00.226Z,2.70
2018-01-25T09:00:27.677Z,1.57
2018-01-25T09:02:55.137Z,1.70
2018-01-25T09:05:22.600Z,2.23
2018-01-25T09:07:50.432Z,1.50
2018-01-25T09:10:17.918Z,2.07
2018-01-25T09:12:45.349Z,2.50
2018-01-25T09:15:12.903Z,2.20
2018-01-25T09:17:40.530Z,3.47
2018-01-25T09:20:07.947Z,0.90
2018-01-25T09:22:35.394Z,1.90
2018-01-25T09:25:03.186Z,1.50
2018-01-25T09:27:30.944Z,1.97
2018-01-25T09:29:58.430Z,3.07
2018-01-25T09:32:26.080Z,2.67
2018-01-25T09:34:53.549Z,1.57
2018-01-25T09:37:21.034Z,1.50
2018-01-25T09:39:48.476Z,1.47
2018-01-25T09:42:15.928Z,2.50
2018-01-25T09:44:43.408Z,2.40
2018-01-25T09:47:10.857Z,1.40
2018-01-25T09:49:38.368Z,0.63
2018-01-25T09:52:05.997Z,1.77
2018-01-25T09:54:33.517Z,1.80
2018-01-25T09:57:00.973Z,4.87
2018-01-25T09:59:28.432Z,1.47
2018-01-25T10:01:55.961Z,1.87
2018-01-25T10:04:23.379Z,0.90
2018-01-25T10:06:50.893Z,0.80
2018-01-25T10:09:18.501Z,1.10
2018-01-25T10:11:45.985Z,1.47
2018-01-25T10:14:13.564Z,1.43
2018-01-25T10:16:41.132Z,1.23
2018-01-25T10:19:08.697Z,2.37
2018-01-25T10:21:36.148Z,1.43
2018-01-25T10:24:03.609Z,1.27
2018-01-25T10:26:31.464Z,2.23
2018-01-25T10:28:58.922Z,2.20
2018-01-25T10:31:26.376Z,1.33
2018-01-25T10:33:53.842Z,1.50
2018-01-25T10:36:21.297Z,0.87
2018-01-25T10:38:48.756Z,2.50
2018-01-25T10:41:16.244Z,1.33
2018-01-25T10:43:43.892Z,1.33
2018-01-25T10:46:12.116Z,2.20
2018-01-25T10:48:39.605Z,1.97
2018-01-25T10:51:07.173Z,0.93
2018-01-25T10:53:34.667Z,3.07
2018-01-25T10:56:02.073Z,0.43
2018-01-25T10:58:29.532Z,1.43
2018-01-25T11:01:02.629Z,1.10
2018-01-25T11:03:30.393Z,1.50
2018-01-25T11:05:57.848Z,1.37
2018-01-25T11:08:25.314Z,1.47
2018-01-25T11:10:53.078Z,1.47
2018-01-25T11:13:20.718Z,1.83
2018-01-25T11:15:48.328Z,0.70
2018-01-25T11:18:16.060Z,0.93
2018-01-25T11:20:43.553Z,4.60
2018-01-25T11:23:11.317Z,5.80
2018-01-25T11:25:38.921Z,4.33
2018-01-25T11:28:06.434Z,1.43
2018-01-25T11:30:33.902Z,1.93
2018-01-25T11:33:01.437Z,4.23
2018-01-25T11:35:29.080Z,3.90
2018-01-25T11:37:56.568Z,3.80
2018-01-25T11:40:24.029Z,2.73
2018-01-25T11:42:51.477Z,7.77
2018-01-25T11:45:18.945Z,10.43
2018-01-25T11:47:46.464Z,10.83
2018-01-25T11:50:13.921Z,8.03
2018-01-25T11:52:41.592Z,14.40
2018-01-25T11:55:09.182Z,5.63
2018-01-25T11:57:36.638Z,6.67
2018-01-25T12:00:04.297Z,6.60
2018-01-25T12:02:31.741Z,7.40
2018-01-25T12:04:59.984Z,3.00
2018-01-25T12:07:27.560Z,8.77
2018-01-25T12:09:55.149Z,8.43
2018-01-25T12:12:24.147Z,4.57
2018-01-25T12:14:51.602Z,5.57
2018-01-25T12:17:19.110Z,4.63
2018-01-25T12:19:46.745Z,4.67
2018-01-25T12:22:14.201Z,9.90
2018-01-25T12:24:41.742Z,6.47
2018-01-25T12:27:09.194Z,5.97
2018-01-25T12:29:36.739Z,3.33
2018-01-25T12:32:04.324Z,5.87
2018-01-25T12:34:31.768Z,5.20
2018-01-25T12:36:59.227Z,3.13
2018-01-25T12:39:26.684Z,4.30
2018-01-25T12:41:54.153Z,3.73
2018-01-25T12:44:21.701Z,7.23
2018-01-25T12:46:49.356Z,5.07
2018-01-25T12:49:16.804Z,6.27
2018-01-25T12:51:44.385Z,5.47
2018-01-25T12:54:11.861Z,1.83
2018-01-25T12:56:42.368Z,5.83
2018-01-25T12:59:09.842Z,6.40
2018-01-25T13:01:37.473Z,1.67
2018-01-25T13:04:04.951Z,3.67
2018-01-25T13:06:32.409Z,6.00
2018-01-25T13:09:00.009Z,7.53
2018-01-25T13:11:27.720Z,6.73
2018-01-25T13:13:55.483Z,5.27
2018-01-25T13:16:23.018Z,3.27
2018-01-25T13:18:50.600Z,6.10
2018-01-25T13:21:18.077Z,4.67
2018-01-25T13:23:45.532Z,2.53
2018-01-25T13:26:12.988Z,4.00
2018-01-25T13:28:40.437Z,2.23
2018-01-25T13:31:08.010Z,1.97
2018-01-25T13:33:41.189Z,2.53
2018-01-25T13:36:08.677Z,7.10
2018-01-25T13:38:36.129Z,2.00
2018-01-25T13:41:03.580Z,6.20
2018-01-25T13:43:31.032Z,3.87
2018-01-25T13:45:58.497Z,4.20
2018-01-25T13:48:26.050Z,3.80
2018-01-25T13:50:53.509Z,3.17
2018-01-25T13:53:21.134Z,6.30
2018-01-25T13:55:48.637Z,6.57
2018-01-25T13:58:16.083Z,4.07
2018-01-25T14:00:43.646Z,2.03
2018-01-25T14:03:11.119Z,3.70
2018-01-25T14:05:38.582Z,5.40
2018-01-25T14:08:06.270Z,2.43
2018-01-25T14:10:33.856Z,2.23
2018-01-25T14:13:01.312Z,3.93
2018-01-25T14:15:28.930Z,4.90
2018-01-25T14:17:57.406Z,2.33
2018-01-25T14:20:25.171Z,2.37
2018-01-25T14:22:52.631Z,2.57
2018-01-25T14:25:20.088Z,6.83
2018-01-25T14:27:47.709Z,4.90
2018-01-25T14:30:15.239Z,3.10
2018-01-25T14:32:42.746Z,5.70
2018-01-25T14:35:10.323Z,4.40
2018-01-25T14:37:37.888Z,1.93
2018-01-25T14:40:05.447Z,5.07
2018-01-25T14:42:33.212Z,5.57
2018-01-25T14:45:00.967Z,4.13
2018-01-25T14:47:28.452Z,6.33
2018-01-25T14:49:56.056Z,4.10
2018-01-25T14:52:23.520Z,8.23
2018-01-25T14:54:51.109Z,5.23
2018-01-25T14:57:18.746Z,6.80
2018-01-25T14:59:46.325Z,7.43
2018-01-25T15:02:14.090Z,8.20
2018-01-25T15:04:41.723Z,6.30
2018-01-25T15:07:09.197Z,9.13
2018-01-25T15:09:36.712Z,5.97
2018-01-25T15:12:04.188Z,6.87
